sensor_id;sensor_type;location;lat;lon;timestamp;P1;durP1;ratioP1;P2;durP2;ratioP2
55330;SDS011;58851;42.984;20.336;2024-03-29T00:01:23;6.35;;;3.78;;
55330;SDS011;58851;42.984;20.336;2024-03-29T00:03:49;23.63;;;11.77;;
55330;SDS011;58851;42.984;20.336;2024-03-29T00:06:15;20.00;;;11.55;;
55330;SDS011;58851;42.984;20.336;2024-03-29T00:08:40;22.02;;;10.70;;
55330;SDS011;58851;42.984;20.336;2024-03-29T00:11:06;24.63;;;12.77;;
55330;SDS011;58851;42.984;20.336;2024-03-29T00:13:32;31.50;;;15.07;;
55330;SDS011;58851;42.984;20.336;2024-03-29T00:15:58;10.68;;;4.45;;
55330;SDS011;58851;42.984;20.336;2024-03-29T00:18:23;15.32;;;7.82;;
55330;SDS011;58851;42.984;20.336;2024-03-29T00:20:49;28.88;;;16.73;;
55330;SDS011;58851;42.984;20.336;2024-03-29T00:23:15;20.60;;;12.13;;
55330;SDS011;58851;42.984;20.336;2024-03-29T00:25:41;31.48;;;12.82;;
55330;SDS011;58851;42.984;20.336;2024-03-29T00:28:07;31.45;;;15.90;;
55330;SDS011;58851;42.984;20.336;2024-03-29T00:30:33;15.63;;;7.00;;
55330;SDS011;58851;42.984;20.336;2024-03-29T00:32:58;12.73;;;6.55;;
55330;SDS011;58851;42.984;20.336;2024-03-29T00:35:24;20.67;;;9.10;;
55330;SDS011;58851;42.984;20.336;2024-03-29T00:37:51;8.68;;;3.70;;
55330;SDS011;58851;42.984;20.336;2024-03-29T00:40:16;15.10;;;6.13;;
55330;SDS011;58851;42.984;20.336;2024-03-29T00:42:42;13.35;;;8.93;;
55330;SDS011;58851;42.984;20.336;2024-03-29T00:45:08;19.30;;;10.50;;
55330;SDS011;58851;42.984;20.336;2024-03-29T00:47:34;29.90;;;15.18;;
55330;SDS011;58851;42.984;20.336;2024-03-29T00:50:00;17.70;;;10.07;;
55330;SDS011;58851;42.984;20.336;2024-03-29T00:52:26;17.70;;;11.77;;
55330;SDS011;58851;42.984;20.336;2024-03-29T00:54:51;17.33;;;8.63;;
55330;SDS011;58851;42.984;20.336;2024-03-29T00:57:18;16.55;;;7.05;;
55330;SDS011;58851;42.984;20.336;2024-03-29T00:59:44;13.77;;;6.32;;
55330;SDS011;58851;42.984;20.336;2024-03-29T01:02:09;23.42;;;14.15;;
55330;SDS011;58851;42.984;20.336;2024-03-29T01:04:35;21.33;;;13.52;;
55330;SDS011;58851;42.984;20.336;2024-03-29T01:07:03;34.22;;;21.38;;
55330;SDS011;58851;42.984;20.336;2024-03-29T01:09:28;15.38;;;7.55;;
55330;SDS011;58851;42.984;20.336;2024-03-29T01:11:55;11.20;;;4.40;;
55330;SDS011;58851;42.984;20.336;2024-03-29T01:14:20;11.60;;;4.10;;
55330;SDS011;58851;42.984;20.336;2024-03-29T01:16:46;39.80;;;22.88;;
55330;SDS011;58851;42.984;20.336;2024-03-29T01:19:12;42.42;;;18.13;;
55330;SDS011;58851;42.984;20.336;2024-03-29T01:21:38;32.15;;;17.88;;
55330;SDS011;58851;42.984;20.336;2024-03-29T01:24:04;23.63;;;14.93;;
55330;SDS011;58851;42.984;20.336;2024-03-29T01:26:30;24.52;;;12.10;;
55330;SDS011;58851;42.984;20.336;2024-03-29T01:28:56;21.52;;;13.48;;
55330;SDS011;58851;42.984;20.336;2024-03-29T01:31:22;18.08;;;8.63;;
55330;SDS011;58851;42.984;20.336;2024-03-29T01:33:49;12.30;;;7.38;;
55330;SDS011;58851;42.984;20.336;2024-03-29T01:36:15;14.43;;;7.15;;
55330;SDS011;58851;42.984;20.336;2024-03-29T01:38:40;22.50;;;12.35;;
55330;SDS011;58851;42.984;20.336;2024-03-29T01:41:07;10.40;;;5.43;;
55330;SDS011;58851;42.984;20.336;2024-03-29T01:43:32;6.25;;;3.53;;
55330;SDS011;58851;42.984;20.336;2024-03-29T01:45:58;8.20;;;3.08;;
55330;SDS011;58851;42.984;20.336;2024-03-29T01:48:25;6.25;;;2.45;;
55330;SDS011;58851;42.984;20.336;2024-03-29T01:50:53;6.32;;;2.47;;
55330;SDS011;58851;42.984;20.336;2024-03-29T01:53:21;9.75;;;2.70;;
55330;SDS011;58851;42.984;20.336;2024-03-29T01:55:49;8.38;;;4.00;;
55330;SDS011;58851;42.984;20.336;2024-03-29T01:58:15;6.55;;;2.40;;
55330;SDS011;58851;42.984;20.336;2024-03-29T02:00:44;4.10;;;1.70;;
55330;SDS011;58851;42.984;20.336;2024-03-29T02:03:16;6.43;;;3.03;;
55330;SDS011;58851;42.984;20.336;2024-03-29T02:05:42;7.05;;;2.97;;
55330;SDS011;58851;42.984;20.336;2024-03-29T02:08:09;9.07;;;3.30;;
55330;SDS011;58851;42.984;20.336;2024-03-29T02:10:36;10.80;;;4.50;;
55330;SDS011;58851;42.984;20.336;2024-03-29T02:13:03;29.05;;;13.35;;
55330;SDS011;58851;42.984;20.336;2024-03-29T02:15:30;47.35;;;24.33;;
55330;SDS011;58851;42.984;20.336;2024-03-29T02:17:56;31.00;;;14.93;;
55330;SDS011;58851;42.984;20.336;2024-03-29T02:20:22;8.80;;;4.72;;
55330;SDS011;58851;42.984;20.336;2024-03-29T02:23:00;11.25;;;4.88;;
55330;SDS011;58851;42.984;20.336;2024-03-29T02:25:31;13.18;;;6.30;;
55330;SDS011;58851;42.984;20.336;2024-03-29T02:27:57;8.98;;;2.83;;
55330;SDS011;58851;42.984;20.336;2024-03-29T02:30:26;17.80;;;3.40;;
55330;SDS011;58851;42.984;20.336;2024-03-29T02:32:53;11.45;;;5.25;;
55330;SDS011;58851;42.984;20.336;2024-03-29T02:35:19;13.88;;;5.85;;
55330;SDS011;58851;42.984;20.336;2024-03-29T02:37:45;8.93;;;4.53;;
55330;SDS011;58851;42.984;20.336;2024-03-29T02:40:10;12.73;;;7.95;;
55330;SDS011;58851;42.984;20.336;2024-03-29T02:42:37;17.30;;;8.70;;
55330;SDS011;58851;42.984;20.336;2024-03-29T02:45:03;16.98;;;9.60;;
55330;SDS011;58851;42.984;20.336;2024-03-29T02:47:29;17.33;;;9.05;;
55330;SDS011;58851;42.984;20.336;2024-03-29T02:49:55;23.00;;;12.63;;
55330;SDS011;58851;42.984;20.336;2024-03-29T02:52:21;21.60;;;11.43;;
55330;SDS011;58851;42.984;20.336;2024-03-29T02:54:46;17.00;;;9.68;;
55330;SDS011;58851;42.984;20.336;2024-03-29T02:57:12;19.85;;;9.32;;
55330;SDS011;58851;42.984;20.336;2024-03-29T02:59:41;36.17;;;17.05;;
55330;SDS011;58851;42.984;20.336;2024-03-29T03:02:07;37.53;;;20.00;;
55330;SDS011;58851;42.984;20.336;2024-03-29T03:04:33;36.58;;;18.60;;
55330;SDS011;58851;42.984;20.336;2024-03-29T03:06:59;52.10;;;25.67;;
55330;SDS011;58851;42.984;20.336;2024-03-29T03:09:43;48.90;;;23.05;;
55330;SDS011;58851;42.984;20.336;2024-03-29T03:12:28;19.23;;;11.00;;
55330;SDS011;58851;42.984;20.336;2024-03-29T03:14:55;18.83;;;9.07;;
55330;SDS011;58851;42.984;20.336;2024-03-29T03:17:21;23.17;;;13.02;;
55330;SDS011;58851;42.984;20.336;2024-03-29T03:19:47;36.55;;;19.67;;
55330;SDS011;58851;42.984;20.336;2024-03-29T03:22:13;30.38;;;17.33;;
55330;SDS011;58851;42.984;20.336;2024-03-29T03:24:39;28.00;;;13.02;;
55330;SDS011;58851;42.984;20.336;2024-03-29T03:27:05;28.23;;;15.55;;
55330;SDS011;58851;42.984;20.336;2024-03-29T03:29:31;25.92;;;14.93;;
55330;SDS011;58851;42.984;20.336;2024-03-29T03:31:56;27.23;;;13.63;;
55330;SDS011;58851;42.984;20.336;2024-03-29T03:34:22;48.92;;;22.27;;
55330;SDS011;58851;42.984;20.336;2024-03-29T03:36:48;39.83;;;19.63;;
55330;SDS011;58851;42.984;20.336;2024-03-29T03:39:14;29.48;;;10.43;;
55330;SDS011;58851;42.984;20.336;2024-03-29T03:41:39;20.67;;;11.05;;
55330;SDS011;58851;42.984;20.336;2024-03-29T03:44:05;20.73;;;11.07;;
55330;SDS011;58851;42.984;20.336;2024-03-29T03:46:31;30.42;;;19.05;;
55330;SDS011;58851;42.984;20.336;2024-03-29T03:48:57;44.80;;;22.80;;
55330;SDS011;58851;42.984;20.336;2024-03-29T03:51:22;49.20;;;26.08;;
55330;SDS011;58851;42.984;20.336;2024-03-29T03:53:48;45.28;;;23.60;;
55330;SDS011;58851;42.984;20.336;2024-03-29T03:56:14;19.63;;;11.40;;
55330;SDS011;58851;42.984;20.336;2024-03-29T03:58:41;31.30;;;15.95;;
55330;SDS011;58851;42.984;20.336;2024-03-29T04:01:09;40.65;;;20.70;;
55330;SDS011;58851;42.984;20.336;2024-03-29T04:03:34;35.63;;;18.55;;
55330;SDS011;58851;42.984;20.336;2024-03-29T04:06:04;33.97;;;20.88;;
55330;SDS011;58851;42.984;20.336;2024-03-29T04:08:30;15.50;;;8.45;;
55330;SDS011;58851;42.984;20.336;2024-03-29T04:10:56;18.08;;;9.52;;
55330;SDS011;58851;42.984;20.336;2024-03-29T04:13:22;16.70;;;8.80;;
55330;SDS011;58851;42.984;20.336;2024-03-29T04:15:48;20.33;;;8.48;;
55330;SDS011;58851;42.984;20.336;2024-03-29T04:18:14;26.60;;;14.63;;
55330;SDS011;58851;42.984;20.336;2024-03-29T04:20:40;36.20;;;18.38;;
55330;SDS011;58851;42.984;20.336;2024-03-29T04:23:06;36.60;;;23.05;;
55330;SDS011;58851;42.984;20.336;2024-03-29T04:25:32;33.38;;;17.10;;
55330;SDS011;58851;42.984;20.336;2024-03-29T04:27:58;15.85;;;8.40;;
55330;SDS011;58851;42.984;20.336;2024-03-29T04:30:24;14.68;;;8.80;;
55330;SDS011;58851;42.984;20.336;2024-03-29T04:32:50;24.73;;;12.02;;
55330;SDS011;58851;42.984;20.336;2024-03-29T04:35:15;29.48;;;13.60;;
55330;SDS011;58851;42.984;20.336;2024-03-29T04:37:41;17.00;;;9.70;;
55330;SDS011;58851;42.984;20.336;2024-03-29T04:40:07;15.35;;;10.52;;
55330;SDS011;58851;42.984;20.336;2024-03-29T04:42:33;17.60;;;10.43;;
55330;SDS011;58851;42.984;20.336;2024-03-29T04:44:59;23.70;;;10.85;;
55330;SDS011;58851;42.984;20.336;2024-03-29T04:47:25;21.08;;;13.07;;
55330;SDS011;58851;42.984;20.336;2024-03-29T04:49:52;31.23;;;14.68;;
55330;SDS011;58851;42.984;20.336;2024-03-29T04:52:17;29.27;;;14.52;;
55330;SDS011;58851;42.984;20.336;2024-03-29T04:54:43;31.33;;;15.90;;
55330;SDS011;58851;42.984;20.336;2024-03-29T04:57:09;41.47;;;24.83;;
55330;SDS011;58851;42.984;20.336;2024-03-29T04:59:37;54.50;;;31.98;;
55330;SDS011;58851;42.984;20.336;2024-03-29T05:02:03;52.50;;;32.38;;
55330;SDS011;58851;42.984;20.336;2024-03-29T05:04:29;46.47;;;26.63;;
55330;SDS011;58851;42.984;20.336;2024-03-29T05:06:55;44.10;;;25.40;;
55330;SDS011;58851;42.984;20.336;2024-03-29T05:09:25;47.45;;;27.30;;
55330;SDS011;58851;42.984;20.336;2024-03-29T05:11:52;48.45;;;28.58;;
55330;SDS011;58851;42.984;20.336;2024-03-29T05:14:20;61.78;;;36.53;;
55330;SDS011;58851;42.984;20.336;2024-03-29T05:16:47;92.93;;;45.97;;
55330;SDS011;58851;42.984;20.336;2024-03-29T05:19:14;102.30;;;52.63;;
55330;SDS011;58851;42.984;20.336;2024-03-29T05:21:40;77.40;;;41.42;;
55330;SDS011;58851;42.984;20.336;2024-03-29T05:24:07;76.47;;;41.30;;
55330;SDS011;58851;42.984;20.336;2024-03-29T05:26:33;83.28;;;45.15;;
55330;SDS011;58851;42.984;20.336;2024-03-29T05:28:59;84.03;;;44.83;;
55330;SDS011;58851;42.984;20.336;2024-03-29T05:31:25;84.13;;;48.50;;
55330;SDS011;58851;42.984;20.336;2024-03-29T05:33:54;81.10;;;44.45;;
55330;SDS011;58851;42.984;20.336;2024-03-29T05:36:20;74.57;;;44.45;;
55330;SDS011;58851;42.984;20.336;2024-03-29T05:38:46;68.75;;;41.75;;
55330;SDS011;58851;42.984;20.336;2024-03-29T05:41:12;60.53;;;36.70;;
55330;SDS011;58851;42.984;20.336;2024-03-29T05:43:41;36.03;;;21.98;;
55330;SDS011;58851;42.984;20.336;2024-03-29T05:46:06;21.20;;;13.05;;
55330;SDS011;58851;42.984;20.336;2024-03-29T05:48:32;24.65;;;13.07;;
55330;SDS011;58851;42.984;20.336;2024-03-29T05:50:59;24.33;;;12.45;;
55330;SDS011;58851;42.984;20.336;2024-03-29T05:53:24;26.83;;;13.82;;
55330;SDS011;58851;42.984;20.336;2024-03-29T05:55:50;21.73;;;13.93;;
55330;SDS011;58851;42.984;20.336;2024-03-29T05:58:16;20.80;;;11.85;;
55330;SDS011;58851;42.984;20.336;2024-03-29T06:00:46;17.63;;;10.60;;
55330;SDS011;58851;42.984;20.336;2024-03-29T06:03:12;22.10;;;12.23;;
55330;SDS011;58851;42.984;20.336;2024-03-29T06:05:39;32.88;;;15.63;;
55330;SDS011;58851;42.984;20.336;2024-03-29T06:08:06;41.30;;;22.90;;
55330;SDS011;58851;42.984;20.336;2024-03-29T06:10:32;53.35;;;28.58;;
55330;SDS011;58851;42.984;20.336;2024-03-29T06:12:58;40.67;;;22.77;;
55330;SDS011;58851;42.984;20.336;2024-03-29T06:15:32;32.10;;;19.90;;
55330;SDS011;58851;42.984;20.336;2024-03-29T06:18:17;32.00;;;16.50;;
55330;SDS011;58851;42.984;20.336;2024-03-29T06:20:44;31.98;;;18.88;;
55330;SDS011;58851;42.984;20.336;2024-03-29T06:23:13;27.27;;;16.67;;
55330;SDS011;58851;42.984;20.336;2024-03-29T06:25:39;27.70;;;15.50;;
55330;SDS011;58851;42.984;20.336;2024-03-29T06:28:05;29.27;;;18.05;;
55330;SDS011;58851;42.984;20.336;2024-03-29T06:30:31;23.50;;;13.05;;
55330;SDS011;58851;42.984;20.336;2024-03-29T06:32:57;20.67;;;11.93;;
55330;SDS011;58851;42.984;20.336;2024-03-29T06:35:22;24.95;;;14.50;;
55330;SDS011;58851;42.984;20.336;2024-03-29T06:37:48;26.65;;;16.52;;
55330;SDS011;58851;42.984;20.336;2024-03-29T06:40:14;27.98;;;15.23;;
55330;SDS011;58851;42.984;20.336;2024-03-29T06:42:40;23.75;;;14.90;;
55330;SDS011;58851;42.984;20.336;2024-03-29T06:45:05;19.98;;;11.07;;
55330;SDS011;58851;42.984;20.336;2024-03-29T06:47:32;16.77;;;9.40;;
55330;SDS011;58851;42.984;20.336;2024-03-29T06:49:57;17.77;;;9.45;;
55330;SDS011;58851;42.984;20.336;2024-03-29T06:52:23;28.88;;;15.38;;
55330;SDS011;58851;42.984;20.336;2024-03-29T06:54:49;32.47;;;17.77;;
55330;SDS011;58851;42.984;20.336;2024-03-29T06:57:15;29.88;;;14.63;;
55330;SDS011;58851;42.984;20.336;2024-03-29T06:59:45;30.88;;;12.93;;
55330;SDS011;58851;42.984;20.336;2024-03-29T07:02:11;24.35;;;12.50;;
55330;SDS011;58851;42.984;20.336;2024-03-29T07:04:37;14.27;;;7.65;;
55330;SDS011;58851;42.984;20.336;2024-03-29T07:07:03;21.02;;;7.05;;
55330;SDS011;58851;42.984;20.336;2024-03-29T07:09:29;16.77;;;8.38;;
55330;SDS011;58851;42.984;20.336;2024-03-29T07:11:55;15.85;;;7.50;;
55330;SDS011;58851;42.984;20.336;2024-03-29T07:14:20;29.50;;;9.90;;
55330;SDS011;58851;42.984;20.336;2024-03-29T07:16:48;18.52;;;9.30;;
55330;SDS011;58851;42.984;20.336;2024-03-29T07:19:14;20.08;;;8.90;;
55330;SDS011;58851;42.984;20.336;2024-03-29T07:21:44;13.05;;;8.07;;
55330;SDS011;58851;42.984;20.336;2024-03-29T07:24:13;19.10;;;6.70;;
55330;SDS011;58851;42.984;20.336;2024-03-29T07:26:39;12.10;;;6.68;;
55330;SDS011;58851;42.984;20.336;2024-03-29T07:29:05;17.10;;;7.90;;
55330;SDS011;58851;42.984;20.336;2024-03-29T07:31:32;19.98;;;9.00;;
55330;SDS011;58851;42.984;20.336;2024-03-29T07:33:58;14.95;;;6.93;;
55330;SDS011;58851;42.984;20.336;2024-03-29T07:36:25;25.75;;;6.53;;
55330;SDS011;58851;42.984;20.336;2024-03-29T07:38:52;11.82;;;6.60;;
55330;SDS011;58851;42.984;20.336;2024-03-29T07:41:18;15.02;;;4.88;;
55330;SDS011;58851;42.984;20.336;2024-03-29T07:43:53;7.45;;;3.80;;
55330;SDS011;58851;42.984;20.336;2024-03-29T07:46:22;11.45;;;5.00;;
55330;SDS011;58851;42.984;20.336;2024-03-29T07:48:49;17.60;;;6.35;;
55330;SDS011;58851;42.984;20.336;2024-03-29T07:51:15;15.68;;;5.82;;
55330;SDS011;58851;42.984;20.336;2024-03-29T07:53:41;12.20;;;4.38;;
55330;SDS011;58851;42.984;20.336;2024-03-29T07:56:06;9.80;;;4.03;;
55330;SDS011;58851;42.984;20.336;2024-03-29T07:58:32;7.90;;;3.85;;
55330;SDS011;58851;42.984;20.336;2024-03-29T08:00:58;10.85;;;3.90;;
55330;SDS011;58851;42.984;20.336;2024-03-29T08:03:24;9.70;;;3.88;;
55330;SDS011;58851;42.984;20.336;2024-03-29T08:05:59;9.98;;;3.20;;
55330;SDS011;58851;42.984;20.336;2024-03-29T08:08:31;11.27;;;2.03;;
55330;SDS011;58851;42.984;20.336;2024-03-29T08:10:57;18.33;;;3.92;;
55330;SDS011;58851;42.984;20.336;2024-03-29T08:13:23;12.40;;;5.57;;
55330;SDS011;58851;42.984;20.336;2024-03-29T08:15:59;9.45;;;3.20;;
55330;SDS011;58851;42.984;20.336;2024-03-29T08:18:26;16.65;;;7.10;;
55330;SDS011;58851;42.984;20.336;2024-03-29T08:20:52;13.13;;;3.38;;
55330;SDS011;58851;42.984;20.336;2024-03-29T08:23:22;8.27;;;2.60;;
55330;SDS011;58851;42.984;20.336;2024-03-29T08:25:48;9.93;;;3.95;;
55330;SDS011;58851;42.984;20.336;2024-03-29T08:28:16;9.35;;;3.85;;
55330;SDS011;58851;42.984;20.336;2024-03-29T08:30:43;8.23;;;3.40;;
55330;SDS011;58851;42.984;20.336;2024-03-29T08:33:08;9.65;;;3.63;;
55330;SDS011;58851;42.984;20.336;2024-03-29T08:35:34;11.02;;;4.43;;
55330;SDS011;58851;42.984;20.336;2024-03-29T08:38:00;20.83;;;8.80;;
55330;SDS011;58851;42.984;20.336;2024-03-29T08:40:26;11.10;;;4.47;;
55330;SDS011;58851;42.984;20.336;2024-03-29T08:42:57;14.73;;;6.55;;
55330;SDS011;58851;42.984;20.336;2024-03-29T08:45:23;15.32;;;4.65;;
55330;SDS011;58851;42.984;20.336;2024-03-29T08:47:49;6.93;;;3.30;;
55330;SDS011;58851;42.984;20.336;2024-03-29T08:50:15;8.23;;;3.33;;
55330;SDS011;58851;42.984;20.336;2024-03-29T08:52:40;10.38;;;3.63;;
55330;SDS011;58851;42.984;20.336;2024-03-29T08:55:07;7.72;;;2.35;;
55330;SDS011;58851;42.984;20.336;2024-03-29T08:57:33;12.80;;;2.42;;
55330;SDS011;58851;42.984;20.336;2024-03-29T08:59:59;11.50;;;4.68;;
55330;SDS011;58851;42.984;20.336;2024-03-29T09:02:25;15.45;;;3.72;;
55330;SDS011;58851;42.984;20.336;2024-03-29T09:04:51;8.93;;;2.40;;
55330;SDS011;58851;42.984;20.336;2024-03-29T09:07:17;8.98;;;3.10;;
55330;SDS011;58851;42.984;20.336;2024-03-29T09:09:43;13.02;;;5.80;;
55330;SDS011;58851;42.984;20.336;2024-03-29T09:12:09;11.13;;;3.90;;
55330;SDS011;58851;42.984;20.336;2024-03-29T09:14:34;16.60;;;5.57;;
55330;SDS011;58851;42.984;20.336;2024-03-29T09:17:00;12.13;;;5.55;;
55330;SDS011;58851;42.984;20.336;2024-03-29T09:19:27;7.00;;;2.58;;
55330;SDS011;58851;42.984;20.336;2024-03-29T09:21:55;11.00;;;4.45;;
55330;SDS011;58851;42.984;20.336;2024-03-29T09:24:21;8.25;;;2.20;;
55330;SDS011;58851;42.984;20.336;2024-03-29T09:26:50;5.75;;;1.85;;
55330;SDS011;58851;42.984;20.336;2024-03-29T09:29:16;7.40;;;2.22;;
55330;SDS011;58851;42.984;20.336;2024-03-29T09:31:45;9.98;;;4.00;;
55330;SDS011;58851;42.984;20.336;2024-03-29T09:34:11;5.60;;;2.47;;
55330;SDS011;58851;42.984;20.336;2024-03-29T09:36:37;10.05;;;2.20;;
55330;SDS011;58851;42.984;20.336;2024-03-29T09:39:03;12.50;;;2.42;;
55330;SDS011;58851;42.984;20.336;2024-03-29T09:41:29;7.07;;;2.55;;
55330;SDS011;58851;42.984;20.336;2024-03-29T09:44:01;9.77;;;3.25;;
55330;SDS011;58851;42.984;20.336;2024-03-29T09:46:28;6.18;;;1.92;;
55330;SDS011;58851;42.984;20.336;2024-03-29T09:48:54;10.30;;;3.47;;
55330;SDS011;58851;42.984;20.336;2024-03-29T09:51:21;7.18;;;2.92;;
55330;SDS011;58851;42.984;20.336;2024-03-29T09:53:47;6.55;;;2.50;;
55330;SDS011;58851;42.984;20.336;2024-03-29T09:56:13;8.95;;;2.25;;
55330;SDS011;58851;42.984;20.336;2024-03-29T09:58:39;6.32;;;2.25;;
55330;SDS011;58851;42.984;20.336;2024-03-29T10:01:06;6.60;;;1.77;;
55330;SDS011;58851;42.984;20.336;2024-03-29T10:03:35;5.57;;;2.15;;
55330;SDS011;58851;42.984;20.336;2024-03-29T10:06:05;7.70;;;2.75;;
55330;SDS011;58851;42.984;20.336;2024-03-29T10:08:34;13.63;;;3.00;;
55330;SDS011;58851;42.984;20.336;2024-03-29T10:11:01;7.25;;;2.03;;
55330;SDS011;58851;42.984;20.336;2024-03-29T10:13:26;8.80;;;3.45;;
55330;SDS011;58851;42.984;20.336;2024-03-29T10:15:53;9.52;;;2.92;;
55330;SDS011;58851;42.984;20.336;2024-03-29T10:18:23;7.40;;;2.22;;
55330;SDS011;58851;42.984;20.336;2024-03-29T10:23:26;8.83;;;3.50;;
55330;SDS011;58851;42.984;20.336;2024-03-29T10:25:52;8.05;;;3.58;;
55330;SDS011;58851;42.984;20.336;2024-03-29T10:28:18;15.35;;;2.83;;
55330;SDS011;58851;42.984;20.336;2024-03-29T10:30:44;8.00;;;2.15;;
55330;SDS011;58851;42.984;20.336;2024-03-29T10:33:11;9.40;;;1.88;;
55330;SDS011;58851;42.984;20.336;2024-03-29T10:35:41;11.82;;;4.13;;
55330;SDS011;58851;42.984;20.336;2024-03-29T10:38:08;14.68;;;3.83;;
55330;SDS011;58851;42.984;20.336;2024-03-29T10:40:36;13.50;;;4.28;;
55330;SDS011;58851;42.984;20.336;2024-03-29T10:43:10;10.23;;;3.42;;
55330;SDS011;58851;42.984;20.336;2024-03-29T10:45:41;25.97;;;14.40;;
55330;SDS011;58851;42.984;20.336;2024-03-29T10:48:08;58.67;;;28.85;;
55330;SDS011;58851;42.984;20.336;2024-03-29T10:50:38;8.00;;;3.63;;
55330;SDS011;58851;42.984;20.336;2024-03-29T10:53:06;4.35;;;2.20;;
55330;SDS011;58851;42.984;20.336;2024-03-29T10:55:36;7.97;;;3.22;;
55330;SDS011;58851;42.984;20.336;2024-03-29T10:58:03;6.50;;;2.47;;
55330;SDS011;58851;42.984;20.336;2024-03-29T11:00:33;7.57;;;2.47;;
55330;SDS011;58851;42.984;20.336;2024-03-29T11:05:50;9.80;;;2.10;;
55330;SDS011;58851;42.984;20.336;2024-03-29T11:08:22;12.80;;;2.63;;
55330;SDS011;58851;42.984;20.336;2024-03-29T11:10:53;9.15;;;2.28;;
55330;SDS011;58851;42.984;20.336;2024-03-29T11:13:41;6.27;;;1.83;;
55330;SDS011;58851;42.984;20.336;2024-03-29T11:16:15;4.75;;;1.88;;
55330;SDS011;58851;42.984;20.336;2024-03-29T11:18:41;9.82;;;2.35;;
55330;SDS011;58851;42.984;20.336;2024-03-29T11:21:08;9.52;;;2.28;;
55330;SDS011;58851;42.984;20.336;2024-03-29T11:23:36;4.53;;;2.13;;
55330;SDS011;58851;42.984;20.336;2024-03-29T11:26:01;5.93;;;1.75;;
55330;SDS011;58851;42.984;20.336;2024-03-29T11:28:34;9.75;;;2.08;;
55330;SDS011;58851;42.984;20.336;2024-03-29T11:31:01;7.82;;;1.83;;
55330;SDS011;58851;42.984;20.336;2024-03-29T11:33:31;7.72;;;2.72;;
55330;SDS011;58851;42.984;20.336;2024-03-29T11:36:11;8.68;;;2.20;;
55330;SDS011;58851;42.984;20.336;2024-03-29T11:38:49;5.53;;;1.70;;
55330;SDS011;58851;42.984;20.336;2024-03-29T11:41:22;5.47;;;1.60;;
55330;SDS011;58851;42.984;20.336;2024-03-29T11:43:52;7.70;;;2.42;;
55330;SDS011;58851;42.984;20.336;2024-03-29T11:46:21;7.40;;;1.45;;
55330;SDS011;58851;42.984;20.336;2024-03-29T11:48:47;4.47;;;1.60;;
55330;SDS011;58851;42.984;20.336;2024-03-29T11:51:17;5.60;;;1.58;;
55330;SDS011;58851;42.984;20.336;2024-03-29T11:53:46;8.80;;;2.83;;
55330;SDS011;58851;42.984;20.336;2024-03-29T11:56:12;5.72;;;2.50;;
55330;SDS011;58851;42.984;20.336;2024-03-29T11:58:38;5.63;;;1.42;;
55330;SDS011;58851;42.984;20.336;2024-03-29T12:01:05;6.15;;;1.38;;
55330;SDS011;58851;42.984;20.336;2024-03-29T12:03:37;7.25;;;2.13;;
55330;SDS011;58851;42.984;20.336;2024-03-29T12:06:04;4.65;;;1.42;;
55330;SDS011;58851;42.984;20.336;2024-03-29T12:08:32;7.55;;;2.67;;
55330;SDS011;58851;42.984;20.336;2024-03-29T12:10:58;5.18;;;1.55;;
55330;SDS011;58851;42.984;20.336;2024-03-29T12:13:25;6.78;;;1.55;;
55330;SDS011;58851;42.984;20.336;2024-03-29T12:15:53;11.57;;;2.50;;
55330;SDS011;58851;42.984;20.336;2024-03-29T12:18:20;6.70;;;2.50;;
55330;SDS011;58851;42.984;20.336;2024-03-29T12:20:50;7.43;;;2.38;;
55330;SDS011;58851;42.984;20.336;2024-03-29T12:23:20;10.35;;;2.33;;
55330;SDS011;58851;42.984;20.336;2024-03-29T12:25:47;5.38;;;1.98;;
55330;SDS011;58851;42.984;20.336;2024-03-29T12:28:15;5.90;;;1.73;;
55330;SDS011;58851;42.984;20.336;2024-03-29T12:30:42;6.13;;;1.70;;
55330;SDS011;58851;42.984;20.336;2024-03-29T12:33:16;7.35;;;2.22;;
55330;SDS011;58851;42.984;20.336;2024-03-29T12:35:47;5.93;;;1.65;;
55330;SDS011;58851;42.984;20.336;2024-03-29T12:38:15;7.38;;;2.60;;
55330;SDS011;58851;42.984;20.336;2024-03-29T12:40:42;7.65;;;2.33;;
55330;SDS011;58851;42.984;20.336;2024-03-29T12:43:10;5.75;;;2.10;;
55330;SDS011;58851;42.984;20.336;2024-03-29T12:45:37;9.02;;;2.00;;
55330;SDS011;58851;42.984;20.336;2024-03-29T12:48:11;5.38;;;1.63;;
55330;SDS011;58851;42.984;20.336;2024-03-29T12:50:43;7.60;;;2.30;;
55330;SDS011;58851;42.984;20.336;2024-03-29T12:53:11;8.25;;;1.63;;
55330;SDS011;58851;42.984;20.336;2024-03-29T12:55:41;7.18;;;1.35;;
55330;SDS011;58851;42.984;20.336;2024-03-29T12:58:16;9.45;;;2.13;;
55330;SDS011;58851;42.984;20.336;2024-03-29T13:00:45;11.90;;;5.00;;
55330;SDS011;58851;42.984;20.336;2024-03-29T13:03:11;5.68;;;2.15;;
55330;SDS011;58851;42.984;20.336;2024-03-29T13:05:37;28.38;;;6.78;;
55330;SDS011;58851;42.984;20.336;2024-03-29T13:08:11;20.95;;;4.40;;
55330;SDS011;58851;42.984;20.336;2024-03-29T13:10:38;9.82;;;3.25;;
55330;SDS011;58851;42.984;20.336;2024-03-29T13:13:04;4.60;;;1.95;;
55330;SDS011;58851;42.984;20.336;2024-03-29T13:15:31;7.32;;;2.13;;
55330;SDS011;58851;42.984;20.336;2024-03-29T13:17:58;7.85;;;2.15;;
55330;SDS011;58851;42.984;20.336;2024-03-29T13:20:25;9.65;;;2.47;;
55330;SDS011;58851;42.984;20.336;2024-03-29T13:22:51;5.47;;;1.48;;
55330;SDS011;58851;42.984;20.336;2024-03-29T13:25:19;12.13;;;3.25;;
55330;SDS011;58851;42.984;20.336;2024-03-29T13:27:49;10.30;;;2.63;;
55330;SDS011;58851;42.984;20.336;2024-03-29T13:30:20;8.90;;;1.98;;
55330;SDS011;58851;42.984;20.336;2024-03-29T13:32:49;6.35;;;2.72;;
55330;SDS011;58851;42.984;20.336;2024-03-29T13:35:15;9.63;;;3.47;;
55330;SDS011;58851;42.984;20.336;2024-03-29T13:37:42;8.73;;;2.38;;
55330;SDS011;58851;42.984;20.336;2024-03-29T13:40:08;7.80;;;2.42;;
55330;SDS011;58851;42.984;20.336;2024-03-29T13:42:36;6.30;;;1.95;;
55330;SDS011;58851;42.984;20.336;2024-03-29T13:45:03;7.43;;;4.35;;
55330;SDS011;58851;42.984;20.336;2024-03-29T13:47:31;5.63;;;2.22;;
55330;SDS011;58851;42.984;20.336;2024-03-29T13:50:01;7.10;;;2.55;;
55330;SDS011;58851;42.984;20.336;2024-03-29T13:52:27;34.00;;;20.70;;
55330;SDS011;58851;42.984;20.336;2024-03-29T13:54:53;58.35;;;34.90;;
55330;SDS011;58851;42.984;20.336;2024-03-29T13:57:19;15.27;;;9.35;;
55330;SDS011;58851;42.984;20.336;2024-03-29T13:59:46;15.07;;;5.20;;
55330;SDS011;58851;42.984;20.336;2024-03-29T14:02:12;11.75;;;6.07;;
55330;SDS011;58851;42.984;20.336;2024-03-29T14:04:40;10.25;;;5.05;;
55330;SDS011;58851;42.984;20.336;2024-03-29T14:07:07;9.57;;;3.45;;
55330;SDS011;58851;42.984;20.336;2024-03-29T14:09:37;10.25;;;3.90;;
55330;SDS011;58851;42.984;20.336;2024-03-29T14:12:03;9.18;;;3.00;;
55330;SDS011;58851;42.984;20.336;2024-03-29T14:14:30;11.20;;;3.65;;
55330;SDS011;58851;42.984;20.336;2024-03-29T14:16:56;9.45;;;2.95;;
55330;SDS011;58851;42.984;20.336;2024-03-29T14:19:22;12.15;;;3.63;;
55330;SDS011;58851;42.984;20.336;2024-03-29T14:21:48;13.00;;;6.07;;
55330;SDS011;58851;42.984;20.336;2024-03-29T14:24:14;17.20;;;3.30;;
55330;SDS011;58851;42.984;20.336;2024-03-29T14:26:42;6.68;;;2.83;;